sensor_id;sensor_type;location;lat;lon;timestamp;P1;durP1;ratioP1;P2;durP2;ratioP2
69795;SDS011;57073;45.650;9.612;2023-03-23T00:04:07;26.33;;;13.65;;
69795;SDS011;57073;45.650;9.612;2023-03-23T00:09:07;27.70;;;13.73;;
69795;SDS011;57073;45.650;9.612;2023-03-23T00:14:08;24.55;;;13.25;;
69795;SDS011;57073;45.650;9.612;2023-03-23T00:19:12;26.50;;;14.27;;
69795;SDS011;57073;45.650;9.612;2023-03-23T00:24:17;26.83;;;14.00;;
69795;SDS011;57073;45.650;9.612;2023-03-23T00:29:22;25.65;;;13.60;;
69795;SDS011;57073;45.650;9.612;2023-03-23T00:34:23;26.88;;;13.57;;
69795;SDS011;57073;45.650;9.612;2023-03-23T00:39:25;26.03;;;13.60;;
69795;SDS011;57073;45.650;9.612;2023-03-23T00:44:27;25.50;;;13.35;;
69795;SDS011;57073;45.650;9.612;2023-03-23T00:49:28;24.60;;;13.00;;
69795;SDS011;57073;45.650;9.612;2023-03-23T00:54:28;24.33;;;12.90;;
69795;SDS011;57073;45.650;9.612;2023-03-23T00:59:29;22.40;;;12.27;;
69795;SDS011;57073;45.650;9.612;2023-03-23T01:04:29;24.97;;;12.20;;
69795;SDS011;57073;45.650;9.612;2023-03-23T01:09:31;23.00;;;11.63;;
69795;SDS011;57073;45.650;9.612;2023-03-23T01:14:32;24.00;;;12.20;;
69795;SDS011;57073;45.650;9.612;2023-03-23T01:19:32;23.73;;;13.07;;
69795;SDS011;57073;45.650;9.612;2023-03-23T01:24:33;24.37;;;13.27;;
69795;SDS011;57073;45.650;9.612;2023-03-23T01:29:33;22.10;;;13.00;;
69795;SDS011;57073;45.650;9.612;2023-03-23T01:34:34;26.88;;;12.60;;
69795;SDS011;57073;45.650;9.612;2023-03-23T01:39:36;22.67;;;12.27;;
69795;SDS011;57073;45.650;9.612;2023-03-23T01:49:38;25.35;;;12.75;;
69795;SDS011;57073;45.650;9.612;2023-03-23T01:54:42;24.15;;;12.70;;
69795;SDS011;57073;45.650;9.612;2023-03-23T01:59:45;26.93;;;12.87;;
69795;SDS011;57073;45.650;9.612;2023-03-23T02:04:48;25.17;;;12.73;;
69795;SDS011;57073;45.650;9.612;2023-03-23T02:09:50;23.00;;;12.13;;
69795;SDS011;57073;45.650;9.612;2023-03-23T02:14:51;24.27;;;13.25;;
69795;SDS011;57073;45.650;9.612;2023-03-23T02:35:17;26.23;;;13.02;;
69795;SDS011;57073;45.650;9.612;2023-03-23T02:40:21;24.50;;;12.47;;
69795;SDS011;57073;45.650;9.612;2023-03-23T02:45:27;27.98;;;13.55;;
69795;SDS011;57073;45.650;9.612;2023-03-23T02:50:30;25.55;;;13.15;;
69795;SDS011;57073;45.650;9.612;2023-03-23T02:55:32;24.73;;;13.30;;
69795;SDS011;57073;45.650;9.612;2023-03-23T03:00:34;23.98;;;13.00;;
69795;SDS011;57073;45.650;9.612;2023-03-23T03:11:05;26.17;;;13.20;;
69795;SDS011;57073;45.650;9.612;2023-03-23T03:16:17;28.67;;;13.43;;
69795;SDS011;57073;45.650;9.612;2023-03-23T03:21:19;23.73;;;12.97;;
69795;SDS011;57073;45.650;9.612;2023-03-23T03:26:25;26.50;;;12.95;;
69795;SDS011;57073;45.650;9.612;2023-03-23T03:31:28;23.37;;;12.83;;
69795;SDS011;57073;45.650;9.612;2023-03-23T03:36:33;25.30;;;13.20;;
69795;SDS011;57073;45.650;9.612;2023-03-23T03:41:35;22.00;;;12.15;;
69795;SDS011;57073;45.650;9.612;2023-03-23T03:46:36;24.20;;;12.43;;
69795;SDS011;57073;45.650;9.612;2023-03-23T03:51:37;23.42;;;12.20;;
69795;SDS011;57073;45.650;9.612;2023-03-23T03:56:39;24.83;;;11.23;;
69795;SDS011;57073;45.650;9.612;2023-03-23T04:01:42;21.77;;;11.87;;
69795;SDS011;57073;45.650;9.612;2023-03-23T04:06:42;21.97;;;12.07;;
69795;SDS011;57073;45.650;9.612;2023-03-23T04:11:42;23.67;;;11.70;;
69795;SDS011;57073;45.650;9.612;2023-03-23T04:16:43;23.33;;;11.95;;
69795;SDS011;57073;45.650;9.612;2023-03-23T04:21:43;24.03;;;12.00;;
69795;SDS011;57073;45.650;9.612;2023-03-23T04:26:48;26.00;;;12.13;;
69795;SDS011;57073;45.650;9.612;2023-03-23T04:31:52;24.75;;;12.30;;
69795;SDS011;57073;45.650;9.612;2023-03-23T04:36:52;27.17;;;12.70;;
69795;SDS011;57073;45.650;9.612;2023-03-23T04:41:53;22.83;;;12.47;;
69795;SDS011;57073;45.650;9.612;2023-03-23T04:46:54;25.20;;;12.98;;
69795;SDS011;57073;45.650;9.612;2023-03-23T04:51:54;24.23;;;12.93;;
69795;SDS011;57073;45.650;9.612;2023-03-23T04:56:54;23.47;;;12.37;;
69795;SDS011;57073;45.650;9.612;2023-03-23T05:01:54;26.63;;;12.87;;
69795;SDS011;57073;45.650;9.612;2023-03-23T05:06:56;26.70;;;12.38;;
69795;SDS011;57073;45.650;9.612;2023-03-23T05:11:56;26.20;;;13.05;;
69795;SDS011;57073;45.650;9.612;2023-03-23T05:16:59;26.00;;;12.93;;
69795;SDS011;57073;45.650;9.612;2023-03-23T05:21:59;28.97;;;13.03;;
69795;SDS011;57073;45.650;9.612;2023-03-23T05:27:02;30.65;;;13.98;;
69795;SDS011;57073;45.650;9.612;2023-03-23T05:32:03;29.17;;;13.80;;
69795;SDS011;57073;45.650;9.612;2023-03-23T05:37:05;30.17;;;13.50;;
69795;SDS011;57073;45.650;9.612;2023-03-23T05:42:05;27.47;;;13.03;;
69795;SDS011;57073;45.650;9.612;2023-03-23T05:47:07;26.25;;;12.90;;
69795;SDS011;57073;45.650;9.612;2023-03-23T05:52:07;25.77;;;12.97;;
69795;SDS011;57073;45.650;9.612;2023-03-23T05:57:08;24.90;;;12.00;;
69795;SDS011;57073;45.650;9.612;2023-03-23T06:02:08;23.10;;;12.33;;
69795;SDS011;57073;45.650;9.612;2023-03-23T06:07:10;25.98;;;11.98;;
69795;SDS011;57073;45.650;9.612;2023-03-23T06:12:13;24.70;;;12.37;;
69795;SDS011;57073;45.650;9.612;2023-03-23T06:17:14;25.92;;;12.48;;
69795;SDS011;57073;45.650;9.612;2023-03-23T06:22:17;23.27;;;12.35;;
69795;SDS011;57073;45.650;9.612;2023-03-23T06:27:18;25.67;;;13.23;;
69795;SDS011;57073;45.650;9.612;2023-03-23T06:32:18;28.67;;;14.32;;
69795;SDS011;57073;45.650;9.612;2023-03-23T06:37:19;24.03;;;12.43;;
69795;SDS011;57073;45.650;9.612;2023-03-23T06:42:19;24.43;;;12.73;;
69795;SDS011;57073;45.650;9.612;2023-03-23T06:47:24;33.05;;;12.63;;
69795;SDS011;57073;45.650;9.612;2023-03-23T06:52:25;23.43;;;12.40;;
69795;SDS011;57073;45.650;9.612;2023-03-23T06:57:25;27.95;;;12.45;;
69795;SDS011;57073;45.650;9.612;2023-03-23T07:02:26;27.90;;;12.70;;
69795;SDS011;57073;45.650;9.612;2023-03-23T07:07:27;26.27;;;12.67;;
69795;SDS011;57073;45.650;9.612;2023-03-23T07:12:27;23.40;;;12.30;;
69795;SDS011;57073;45.650;9.612;2023-03-23T07:17:28;22.63;;;11.13;;
69795;SDS011;57073;45.650;9.612;2023-03-23T07:22:29;22.00;;;11.60;;
69795;SDS011;57073;45.650;9.612;2023-03-23T07:27:29;22.37;;;10.83;;
69795;SDS011;57073;45.650;9.612;2023-03-23T07:32:29;16.30;;;9.83;;
69795;SDS011;57073;45.650;9.612;2023-03-23T07:37:30;20.70;;;9.37;;
69795;SDS011;57073;45.650;9.612;2023-03-23T07:42:32;17.20;;;9.37;;
69795;SDS011;57073;45.650;9.612;2023-03-23T07:47:32;15.07;;;9.10;;
69795;SDS011;57073;45.650;9.612;2023-03-23T07:52:33;16.03;;;8.50;;
69795;SDS011;57073;45.650;9.612;2023-03-23T07:57:34;13.20;;;6.68;;
69795;SDS011;57073;45.650;9.612;2023-03-23T08:02:35;10.73;;;6.33;;
69795;SDS011;57073;45.650;9.612;2023-03-23T08:07:35;8.73;;;5.07;;
69795;SDS011;57073;45.650;9.612;2023-03-23T08:12:36;6.65;;;4.57;;
69795;SDS011;57073;45.650;9.612;2023-03-23T08:17:40;6.97;;;5.05;;
69795;SDS011;57073;45.650;9.612;2023-03-23T08:22:48;8.20;;;4.73;;
69795;SDS011;57073;45.650;9.612;2023-03-23T08:27:53;7.47;;;4.65;;
69795;SDS011;57073;45.650;9.612;2023-03-23T08:32:54;7.47;;;4.70;;
69795;SDS011;57073;45.650;9.612;2023-03-23T08:37:56;12.73;;;5.37;;
69795;SDS011;57073;45.650;9.612;2023-03-23T08:42:57;8.57;;;4.90;;
69795;SDS011;57073;45.650;9.612;2023-03-23T08:47:57;9.27;;;5.00;;
69795;SDS011;57073;45.650;9.612;2023-03-23T08:52:59;9.20;;;4.97;;
69795;SDS011;57073;45.650;9.612;2023-03-23T08:58:00;9.03;;;5.30;;
69795;SDS011;57073;45.650;9.612;2023-03-23T09:03:00;8.77;;;5.70;;
69795;SDS011;57073;45.650;9.612;2023-03-23T09:08:01;8.07;;;5.90;;
69795;SDS011;57073;45.650;9.612;2023-03-23T09:13:03;10.30;;;6.20;;
69795;SDS011;57073;45.650;9.612;2023-03-23T09:18:04;9.47;;;6.47;;
69795;SDS011;57073;45.650;9.612;2023-03-23T09:23:04;8.67;;;6.10;;
69795;SDS011;57073;45.650;9.612;2023-03-23T09:28:05;11.00;;;6.30;;
69795;SDS011;57073;45.650;9.612;2023-03-23T09:33:06;10.87;;;6.93;;
69795;SDS011;57073;45.650;9.612;2023-03-23T09:38:08;8.77;;;5.55;;
69795;SDS011;57073;45.650;9.612;2023-03-23T09:53:37;9.88;;;5.10;;
69795;SDS011;57073;45.650;9.612;2023-03-23T09:58:51;10.02;;;5.70;;
69795;SDS011;57073;45.650;9.612;2023-03-23T10:04:02;8.93;;;5.70;;
69795;SDS011;57073;45.650;9.612;2023-03-23T10:09:13;11.43;;;4.93;;
69795;SDS011;57073;45.650;9.612;2023-03-23T10:19:55;10.15;;;5.40;;
69795;SDS011;57073;45.650;9.612;2023-03-23T10:25:04;8.97;;;5.90;;
69795;SDS011;57073;45.650;9.612;2023-03-23T10:31:09;8.18;;;4.78;;
69795;SDS011;57073;45.650;9.612;2023-03-23T10:41:12;8.77;;;4.60;;
69795;SDS011;57073;45.650;9.612;2023-03-23T10:46:29;9.18;;;4.88;;
69795;SDS011;57073;45.650;9.612;2023-03-23T10:51:43;8.80;;;5.15;;
69795;SDS011;57073;45.650;9.612;2023-03-23T10:56:50;7.60;;;4.77;;
69795;SDS011;57073;45.650;9.612;2023-03-23T11:01:52;8.00;;;6.13;;
69795;SDS011;57073;45.650;9.612;2023-03-23T11:06:58;13.60;;;5.93;;
69795;SDS011;57073;45.650;9.612;2023-03-23T11:12:00;12.30;;;6.20;;
69795;SDS011;57073;45.650;9.612;2023-03-23T11:17:02;10.57;;;5.63;;
69795;SDS011;57073;45.650;9.612;2023-03-23T11:22:14;15.40;;;7.18;;
69795;SDS011;57073;45.650;9.612;2023-03-23T11:27:19;14.70;;;5.93;;
69795;SDS011;57073;45.650;9.612;2023-03-23T11:32:26;11.60;;;6.00;;
69795;SDS011;57073;45.650;9.612;2023-03-23T11:37:32;12.23;;;6.78;;
69795;SDS011;57073;45.650;9.612;2023-03-23T11:42:45;13.75;;;6.88;;
69795;SDS011;57073;45.650;9.612;2023-03-23T11:48:12;11.93;;;7.17;;
69795;SDS011;57073;45.650;9.612;2023-03-23T11:58:58;14.25;;;7.88;;
69795;SDS011;57073;45.650;9.612;2023-03-23T12:04:09;12.70;;;7.17;;
69795;SDS011;57073;45.650;9.612;2023-03-23T12:09:28;12.07;;;7.75;;
69795;SDS011;57073;45.650;9.612;2023-03-23T12:25:30;12.52;;;7.38;;
69795;SDS011;57073;45.650;9.612;2023-03-23T12:30:55;13.27;;;7.68;;
69795;SDS011;57073;45.650;9.612;2023-03-23T12:36:04;13.83;;;7.70;;
69795;SDS011;57073;45.650;9.612;2023-03-23T12:41:18;16.40;;;7.50;;
69795;SDS011;57073;45.650;9.612;2023-03-23T12:57:15;15.38;;;7.63;;
69795;SDS011;57073;45.650;9.612;2023-03-23T13:02:30;16.08;;;7.70;;
69795;SDS011;57073;45.650;9.612;2023-03-23T13:07:36;17.13;;;7.40;;
69795;SDS011;57073;45.650;9.612;2023-03-23T13:12:41;13.45;;;6.72;;
69795;SDS011;57073;45.650;9.612;2023-03-23T13:22:50;14.37;;;6.93;;
69795;SDS011;57073;45.650;9.612;2023-03-23T13:27:58;17.52;;;7.28;;
69795;SDS011;57073;45.650;9.612;2023-03-23T13:33:03;15.18;;;7.43;;
69795;SDS011;57073;45.650;9.612;2023-03-23T13:38:11;14.77;;;7.73;;
69795;SDS011;57073;45.650;9.612;2023-03-23T13:43:34;16.27;;;7.75;;
69795;SDS011;57073;45.650;9.612;2023-03-23T13:49:20;13.27;;;7.13;;
69795;SDS011;57073;45.650;9.612;2023-03-23T13:54:05;13.00;;;6.73;;
69795;SDS011;57073;45.650;9.612;2023-03-23T14:04:30;12.80;;;6.67;;
69795;SDS011;57073;45.650;9.612;2023-03-23T14:09:36;16.43;;;8.00;;
69795;SDS011;57073;45.650;9.612;2023-03-23T14:14:40;12.90;;;7.45;;
69795;SDS011;57073;45.650;9.612;2023-03-23T14:19:47;14.30;;;7.40;;
69795;SDS011;57073;45.650;9.612;2023-03-23T14:24:53;14.93;;;8.20;;
69795;SDS011;57073;45.650;9.612;2023-03-23T14:30:02;13.13;;;7.75;;
69795;SDS011;57073;45.650;9.612;2023-03-23T14:35:18;15.05;;;7.18;;
69795;SDS011;57073;45.650;9.612;2023-03-23T14:40:25;15.17;;;7.83;;
69795;SDS011;57073;45.650;9.612;2023-03-23T14:45:27;14.18;;;7.60;;
69795;SDS011;57073;45.650;9.612;2023-03-23T14:50:35;13.90;;;7.43;;
69795;SDS011;57073;45.650;9.612;2023-03-23T14:55:36;14.23;;;7.15;;
69795;SDS011;57073;45.650;9.612;2023-03-23T15:00:40;12.40;;;7.87;;
69795;SDS011;57073;45.650;9.612;2023-03-23T15:06:15;12.10;;;7.65;;
69795;SDS011;57073;45.650;9.612;2023-03-23T15:16:19;12.40;;;8.00;;
69795;SDS011;57073;45.650;9.612;2023-03-23T15:21:22;14.32;;;8.45;;
69795;SDS011;57073;45.650;9.612;2023-03-23T15:26:34;13.15;;;8.43;;
69795;SDS011;57073;45.650;9.612;2023-03-23T15:31:46;13.23;;;7.73;;
69795;SDS011;57073;45.650;9.612;2023-03-23T15:36:52;14.88;;;8.40;;
69795;SDS011;57073;45.650;9.612;2023-03-23T15:41:56;12.82;;;7.35;;
69795;SDS011;57073;45.650;9.612;2023-03-23T15:47:19;15.50;;;8.50;;
69795;SDS011;57073;45.650;9.612;2023-03-23T15:52:21;12.52;;;7.80;;
69795;SDS011;57073;45.650;9.612;2023-03-23T15:57:21;21.43;;;9.03;;
69795;SDS011;57073;45.650;9.612;2023-03-23T16:02:22;14.07;;;8.23;;
69795;SDS011;57073;45.650;9.612;2023-03-23T16:07:24;12.98;;;8.20;;
69795;SDS011;57073;45.650;9.612;2023-03-23T16:12:24;13.10;;;7.27;;
69795;SDS011;57073;45.650;9.612;2023-03-23T16:17:25;16.67;;;8.37;;
69795;SDS011;57073;45.650;9.612;2023-03-23T16:22:25;11.60;;;7.10;;
69795;SDS011;57073;45.650;9.612;2023-03-23T16:27:25;17.00;;;7.50;;
69795;SDS011;57073;45.650;9.612;2023-03-23T16:32:26;11.97;;;7.93;;
69795;SDS011;57073;45.650;9.612;2023-03-23T16:37:26;14.47;;;6.87;;
69795;SDS011;57073;45.650;9.612;2023-03-23T16:42:32;15.65;;;8.10;;
69795;SDS011;57073;45.650;9.612;2023-03-23T16:47:32;11.20;;;7.50;;
69795;SDS011;57073;45.650;9.612;2023-03-23T16:52:32;12.90;;;6.83;;
69795;SDS011;57073;45.650;9.612;2023-03-23T16:57:33;11.50;;;6.80;;
69795;SDS011;57073;45.650;9.612;2023-03-23T17:02:36;12.52;;;7.40;;
69795;SDS011;57073;45.650;9.612;2023-03-23T17:07:39;10.10;;;6.67;;
69795;SDS011;57073;45.650;9.612;2023-03-23T17:12:41;11.52;;;7.30;;
69795;SDS011;57073;45.650;9.612;2023-03-23T17:17:41;13.83;;;6.90;;
69795;SDS011;57073;45.650;9.612;2023-03-23T17:22:42;13.27;;;6.60;;
69795;SDS011;57073;45.650;9.612;2023-03-23T17:27:42;11.37;;;7.33;;
69795;SDS011;57073;45.650;9.612;2023-03-23T17:32:43;13.77;;;8.00;;
69795;SDS011;57073;45.650;9.612;2023-03-23T17:37:43;14.63;;;8.80;;
69795;SDS011;57073;45.650;9.612;2023-03-23T17:42:44;15.17;;;8.37;;
69795;SDS011;57073;45.650;9.612;2023-03-23T17:47:44;16.00;;;8.52;;
69795;SDS011;57073;45.650;9.612;2023-03-23T17:52:45;12.57;;;7.90;;
69795;SDS011;57073;45.650;9.612;2023-03-23T17:57:45;13.77;;;7.60;;
69795;SDS011;57073;45.650;9.612;2023-03-23T18:02:46;13.77;;;7.90;;
69795;SDS011;57073;45.650;9.612;2023-03-23T18:07:46;19.63;;;8.13;;
69795;SDS011;57073;45.650;9.612;2023-03-23T18:12:47;14.77;;;8.17;;
69795;SDS011;57073;45.650;9.612;2023-03-23T18:17:49;17.45;;;7.97;;
69795;SDS011;57073;45.650;9.612;2023-03-23T18:22:50;15.03;;;8.13;;
69795;SDS011;57073;45.650;9.612;2023-03-23T18:27:51;15.90;;;8.90;;
69795;SDS011;57073;45.650;9.612;2023-03-23T18:32:52;17.77;;;8.97;;
69795;SDS011;57073;45.650;9.612;2023-03-23T18:37:52;14.17;;;9.20;;
69795;SDS011;57073;45.650;9.612;2023-03-23T18:42:52;15.37;;;8.50;;
69795;SDS011;57073;45.650;9.612;2023-03-23T18:47:53;12.77;;;7.90;;
69795;SDS011;57073;45.650;9.612;2023-03-23T18:52:53;14.27;;;8.40;;
69795;SDS011;57073;45.650;9.612;2023-03-23T18:57:53;12.23;;;7.67;;
69795;SDS011;57073;45.650;9.612;2023-03-23T19:02:54;14.17;;;7.60;;
69795;SDS011;57073;45.650;9.612;2023-03-23T19:07:55;11.50;;;7.10;;
69795;SDS011;57073;45.650;9.612;2023-03-23T19:12:55;11.93;;;6.55;;
69795;SDS011;57073;45.650;9.612;2023-03-23T19:17:56;9.77;;;6.17;;
69795;SDS011;57073;45.650;9.612;2023-03-23T19:22:56;14.17;;;7.90;;
69795;SDS011;57073;45.650;9.612;2023-03-23T19:27:56;13.97;;;8.77;;
69795;SDS011;57073;45.650;9.612;2023-03-23T19:32:57;13.70;;;7.40;;
69795;SDS011;57073;45.650;9.612;2023-03-23T19:37:57;10.37;;;5.63;;
69795;SDS011;57073;45.650;9.612;2023-03-23T19:42:58;9.73;;;4.90;;
69795;SDS011;57073;45.650;9.612;2023-03-23T19:47:58;9.18;;;5.25;;
69795;SDS011;57073;45.650;9.612;2023-03-23T19:52:59;11.60;;;5.97;;
69795;SDS011;57073;45.650;9.612;2023-03-23T19:57:59;7.40;;;4.90;;
69795;SDS011;57073;45.650;9.612;2023-03-23T20:03:00;10.50;;;4.80;;
69795;SDS011;57073;45.650;9.612;2023-03-23T20:08:00;10.43;;;4.57;;
69795;SDS011;57073;45.650;9.612;2023-03-23T20:13:02;10.30;;;4.90;;
69795;SDS011;57073;45.650;9.612;2023-03-23T20:18:03;7.77;;;4.40;;
69795;SDS011;57073;45.650;9.612;2023-03-23T20:23:05;7.20;;;4.60;;
69795;SDS011;57073;45.650;9.612;2023-03-23T20:28:06;8.83;;;4.77;;
69795;SDS011;57073;45.650;9.612;2023-03-23T20:33:07;7.65;;;4.30;;
69795;SDS011;57073;45.650;9.612;2023-03-23T20:38:08;6.77;;;4.50;;
69795;SDS011;57073;45.650;9.612;2023-03-23T20:43:08;8.50;;;5.00;;
69795;SDS011;57073;45.650;9.612;2023-03-23T20:48:09;9.10;;;5.20;;
69795;SDS011;57073;45.650;9.612;2023-03-23T20:53:09;7.33;;;4.77;;
69795;SDS011;57073;45.650;9.612;2023-03-23T20:58:09;7.05;;;4.45;;
69795;SDS011;57073;45.650;9.612;2023-03-23T21:03:10;7.93;;;4.40;;
69795;SDS011;57073;45.650;9.612;2023-03-23T21:08:10;9.10;;;4.50;;
69795;SDS011;57073;45.650;9.612;2023-03-23T21:13:11;7.07;;;4.50;;
69795;SDS011;57073;45.650;9.612;2023-03-23T21:18:13;7.65;;;4.50;;
69795;SDS011;57073;45.650;9.612;2023-03-23T21:23:13;7.30;;;4.90;;
69795;SDS011;57073;45.650;9.612;2023-03-23T21:28:15;7.73;;;4.80;;
69795;SDS011;57073;45.650;9.612;2023-03-23T21:33:16;8.35;;;5.45;;
69795;SDS011;57073;45.650;9.612;2023-03-23T21:38:16;8.67;;;5.40;;
69795;SDS011;57073;45.650;9.612;2023-03-23T21:43:18;7.47;;;5.30;;
69795;SDS011;57073;45.650;9.612;2023-03-23T21:48:26;8.93;;;5.50;;
69795;SDS011;57073;45.650;9.612;2023-03-23T21:53:26;11.38;;;5.22;;
69795;SDS011;57073;45.650;9.612;2023-03-23T21:58:29;7.77;;;5.17;;
69795;SDS011;57073;45.650;9.612;2023-03-23T22:03:30;8.90;;;5.72;;
69795;SDS011;57073;45.650;9.612;2023-03-23T22:08:31;7.63;;;5.57;;
69795;SDS011;57073;45.650;9.612;2023-03-23T22:13:32;7.83;;;4.83;;
69795;SDS011;57073;45.650;9.612;2023-03-23T22:18:34;8.57;;;5.73;;
69795;SDS011;57073;45.650;9.612;2023-03-23T22:23:37;9.48;;;5.95;;
69795;SDS011;57073;45.650;9.612;2023-03-23T22:28:39;11.02;;;6.20;;
69795;SDS011;57073;45.650;9.612;2023-03-23T22:33:40;10.37;;;6.43;;
69795;SDS011;57073;45.650;9.612;2023-03-23T22:38:41;12.33;;;6.10;;
69795;SDS011;57073;45.650;9.612;2023-03-23T22:43:43;10.57;;;6.68;;
69795;SDS011;57073;45.650;9.612;2023-03-23T22:48:44;11.37;;;6.40;;
69795;SDS011;57073;45.650;9.612;2023-03-23T22:53:45;11.80;;;6.20;;
69795;SDS011;57073;45.650;9.612;2023-03-23T22:58:46;10.90;;;5.87;;
69795;SDS011;57073;45.650;9.612;2023-03-23T23:03:47;10.38;;;5.97;;
69795;SDS011;57073;45.650;9.612;2023-03-23T23:08:48;11.83;;;5.73;;
69795;SDS011;57073;45.650;9.612;2023-03-23T23:13:48;12.47;;;6.07;;
69795;SDS011;57073;45.650;9.612;2023-03-23T23:18:49;10.40;;;5.40;;
69795;SDS011;57073;45.650;9.612;2023-03-23T23:23:49;8.25;;;5.47;;
69795;SDS011;57073;45.650;9.612;2023-03-23T23:28:50;9.73;;;5.47;;
69795;SDS011;57073;45.650;9.612;2023-03-23T23:33:54;9.18;;;5.75;;
69795;SDS011;57073;45.650;9.612;2023-03-23T23:38:59;9.13;;;5.60;;
69795;SDS011;57073;45.650;9.612;2023-03-23T23:44:01;9.02;;;5.68;;
69795;SDS011;57073;45.650;9.612;2023-03-23T23:49:02;12.03;;;5.60;;
69795;SDS011;57073;45.650;9.612;2023-03-23T23:54:03;9.73;;;5.33;;
69795;SDS011;57073;45.650;9.612;2023-03-23T23:59:03;9.50;;;5.47;;
